createdAt,value
2019-05-06T00:01:33.767Z,5.10
2019-05-06T00:04:01.036Z,5.10
2019-05-06T00:06:28.615Z,5.10
2019-05-06T00:08:56.004Z,5.10
2019-05-06T00:11:23.824Z,5.10
2019-05-06T00:13:51.409Z,5.10
2019-05-06T00:16:18.796Z,5.10
2019-05-06T00:18:46.014Z,5.10
2019-05-06T00:21:14.793Z,5.10
2019-05-06T00:23:49.809Z,5.10
2019-05-06T00:26:39.360Z,5.10
2019-05-06T00:29:13.973Z,5.10
2019-05-06T00:31:44.014Z,5.10
2019-05-06T00:34:13.715Z,5.10
2019-05-06T00:36:40.830Z,5.10
2019-05-06T00:39:33.776Z,5.10
2019-05-06T00:42:38.518Z,5.10
2019-05-06T00:45:06.350Z,5.00
2019-05-06T00:47:34.118Z,5.10
2019-05-06T00:50:01.475Z,5.00
2019-05-06T00:52:28.886Z,5.00
2019-05-06T00:54:56.249Z,5.00
2019-05-06T00:57:43.862Z,5.00
2019-05-06T01:00:13.660Z,5.00
2019-05-06T01:02:41.004Z,5.00
2019-05-06T01:05:08.592Z,4.90
2019-05-06T01:07:35.858Z,4.90
2019-05-06T01:10:03.783Z,4.90
2019-05-06T01:12:31.414Z,4.90
2019-05-06T01:14:59.610Z,4.80
2019-05-06T01:17:27.047Z,4.80
2019-05-06T01:19:54.393Z,4.80
2019-05-06T01:22:21.603Z,4.80
2019-05-06T01:24:49.056Z,4.80
2019-05-06T01:27:16.391Z,4.70
2019-05-06T01:29:44.184Z,4.70
2019-05-06T01:32:13.886Z,4.70
2019-05-06T01:34:47.006Z,4.70
2019-05-06T01:37:14.466Z,4.70
2019-05-06T01:40:05.455Z,4.60
2019-05-06T01:42:40.073Z,4.60
2019-05-06T01:45:07.652Z,4.60
2019-05-06T01:47:35.146Z,4.60
2019-05-06T01:50:04.391Z,4.60
2019-05-06T01:52:31.873Z,4.60
2019-05-06T01:54:59.242Z,4.60
2019-05-06T01:57:26.560Z,4.50
2019-05-06T01:59:55.070Z,4.60
2019-05-06T02:02:23.958Z,4.60
2019-05-06T02:04:51.491Z,4.50
2019-05-06T02:07:18.805Z,4.50
2019-05-06T02:09:46.368Z,4.50
2019-05-06T02:12:13.893Z,4.50
2019-05-06T02:14:43.669Z,4.60
2019-05-06T02:17:10.934Z,4.60
2019-05-06T02:19:38.605Z,4.60
2019-05-06T02:22:13.688Z,4.60
2019-05-06T02:24:44.931Z,4.60
2019-05-06T02:27:13.903Z,4.60
2019-05-06T02:29:47.272Z,4.60
2019-05-06T02:32:46.181Z,4.60
2019-05-06T02:35:26.003Z,4.60
2019-05-06T02:37:51.560Z,4.60
2019-05-06T02:40:24.291Z,4.60
2019-05-06T02:42:53.961Z,4.60
2019-05-06T02:45:19.572Z,4.60
2019-05-06T02:47:56.111Z,4.60
2019-05-06T02:50:24.706Z,4.60
2019-05-06T02:52:53.770Z,4.60
2019-05-06T02:55:23.553Z,4.60
2019-05-06T02:57:53.328Z,4.60
2019-05-06T03:00:19.998Z,4.60
2019-05-06T03:02:48.356Z,4.60
2019-05-06T03:05:15.939Z,4.60
2019-05-06T03:07:43.764Z,4.60
2019-05-06T03:10:13.357Z,4.60
2019-05-06T03:12:43.047Z,4.60
2019-05-06T03:15:09.948Z,4.60
2019-05-06T03:17:37.270Z,4.60
2019-05-06T03:20:06.861Z,4.60
2019-05-06T03:22:44.315Z,4.60
2019-05-06T03:25:14.462Z,4.70
2019-05-06T03:27:43.829Z,4.70
2019-05-06T03:30:16.536Z,4.70
2019-05-06T03:33:20.103Z,4.70
2019-05-06T03:35:31.598Z,4.70
2019-05-06T03:37:39.904Z,4.70
2019-05-06T03:40:07.347Z,4.70
2019-05-06T03:42:34.689Z,4.80
2019-05-06T03:45:07.858Z,4.70
2019-05-06T03:47:48.881Z,4.80
2019-05-06T03:50:16.528Z,4.80
2019-05-06T03:52:43.949Z,4.80
2019-05-06T03:55:13.876Z,4.80
2019-05-06T03:57:42.876Z,4.80
2019-05-06T04:00:16.026Z,4.80
2019-05-06T04:02:43.568Z,4.80
2019-05-06T04:05:13.251Z,4.90
2019-05-06T04:07:45.437Z,4.90
2019-05-06T04:10:09.721Z,4.90
2019-05-06T04:12:37.170Z,4.90
2019-05-06T04:15:04.998Z,4.90
2019-05-06T04:17:43.867Z,4.90
2019-05-06T04:20:33.977Z,4.90
2019-05-06T04:23:07.703Z,4.90
2019-05-06T04:26:03.312Z,4.90
2019-05-06T04:28:34.227Z,4.90
2019-05-06T04:31:02.655Z,4.90
2019-05-06T04:33:32.998Z,4.90
2019-05-06T04:35:59.514Z,5.00
2019-05-06T04:38:26.883Z,5.00
2019-05-06T04:40:54.453Z,5.00
2019-05-06T04:43:26.273Z,5.00
2019-05-06T04:45:54.029Z,5.00
2019-05-06T04:48:23.854Z,5.00
2019-05-06T04:50:53.503Z,5.10
2019-05-06T04:53:26.434Z,5.10
2019-05-06T04:55:49.647Z,5.10
2019-05-06T04:58:17.051Z,5.20
2019-05-06T05:00:44.865Z,5.10
2019-05-06T05:03:13.955Z,5.20
2019-05-06T05:05:44.454Z,5.20
2019-05-06T05:08:13.142Z,5.20
2019-05-06T05:10:53.123Z,5.20
2019-05-06T05:13:45.657Z,5.20
2019-05-06T05:16:33.240Z,5.20
2019-05-06T05:19:04.151Z,5.30
2019-05-06T05:21:32.275Z,5.30
2019-05-06T05:24:01.911Z,5.40
2019-05-06T05:26:31.717Z,5.40
2019-05-06T05:28:59.750Z,5.40
2019-05-06T05:31:27.218Z,5.50
2019-05-06T05:33:54.999Z,5.50
2019-05-06T05:36:23.218Z,5.60
2019-05-06T05:38:52.226Z,5.60
2019-05-06T05:41:19.784Z,5.60
2019-05-06T05:43:55.014Z,5.60
2019-05-06T05:46:22.272Z,5.70
2019-05-06T05:49:24.855Z,5.70
2019-05-06T05:51:52.319Z,5.80
2019-05-06T05:54:19.529Z,5.80
2019-05-06T05:56:47.271Z,5.80
2019-05-06T05:59:14.647Z,5.90
2019-05-06T06:01:43.498Z,5.90
2019-05-06T06:04:12.864Z,5.90
2019-05-06T06:06:42.237Z,6.00
2019-05-06T06:09:09.391Z,6.00
2019-05-06T06:11:46.689Z,6.00
2019-05-06T06:14:53.516Z,6.00
2019-05-06T06:17:39.671Z,6.10
2019-05-06T06:20:25.236Z,6.00
2019-05-06T06:22:53.612Z,6.10
2019-05-06T06:25:23.602Z,6.10
2019-05-06T06:27:52.073Z,6.10
2019-05-06T06:30:27.605Z,6.20
2019-05-06T06:32:55.190Z,6.20
2019-05-06T06:35:44.938Z,6.20
2019-05-06T06:38:20.594Z,6.30
2019-05-06T06:40:48.082Z,6.20
2019-05-06T06:43:19.632Z,6.30
2019-05-06T06:45:46.939Z,6.20
2019-05-06T06:48:14.582Z,6.10
2019-05-06T06:50:42.704Z,6.20
2019-05-06T06:53:12.179Z,6.30
2019-05-06T06:55:42.688Z,6.30
2019-05-06T06:58:25.422Z,6.20
2019-05-06T07:01:13.807Z,6.30
2019-05-06T07:03:45.702Z,6.30
2019-05-06T07:06:19.388Z,6.40
2019-05-06T07:08:46.806Z,6.30
2019-05-06T07:11:14.058Z,6.30
2019-05-06T07:13:52.878Z,6.30
2019-05-06T07:16:20.897Z,6.40
2019-05-06T07:18:49.553Z,6.40
2019-05-06T07:21:22.923Z,6.50
2019-05-06T07:23:50.181Z,6.60
2019-05-06T07:26:19.569Z,6.60
2019-05-06T07:28:48.173Z,6.60
2019-05-06T07:31:22.356Z,6.60
2019-05-06T07:33:44.798Z,6.60
2019-05-06T07:36:13.015Z,6.60
2019-05-06T07:38:48.900Z,6.70
2019-05-06T07:41:19.960Z,6.60
2019-05-06T07:44:04.143Z,6.60
2019-05-06T07:46:49.250Z,6.50
2019-05-06T07:49:16.437Z,6.50
2019-05-06T07:51:43.881Z,6.50
2019-05-06T07:54:12.242Z,6.50
2019-05-06T07:56:39.917Z,6.50
2019-05-06T07:59:07.171Z,6.50
2019-05-06T08:01:35.688Z,6.50
2019-05-06T08:04:02.898Z,6.50
2019-05-06T08:06:32.066Z,6.50
2019-05-06T08:08:59.320Z,6.60
2019-05-06T08:11:26.801Z,6.50
2019-05-06T08:13:54.189Z,6.50
2019-05-06T08:16:22.620Z,6.50
2019-05-06T08:18:52.341Z,6.50
2019-05-06T08:21:22.440Z,6.50
2019-05-06T08:23:52.301Z,6.60
2019-05-06T08:26:22.259Z,6.60
2019-05-06T08:28:49.266Z,6.60
2019-05-06T08:31:18.392Z,6.60
2019-05-06T08:33:45.624Z,6.60
2019-05-06T08:36:18.560Z,6.60
2019-05-06T08:38:55.463Z,6.60
2019-05-06T08:41:22.847Z,6.60
2019-05-06T08:43:50.238Z,6.60
2019-05-06T08:46:17.429Z,6.60
2019-05-06T08:48:44.605Z,6.50
2019-05-06T08:51:18.358Z,6.50
2019-05-06T08:53:56.336Z,6.50
2019-05-06T08:56:26.279Z,6.60
2019-05-06T08:58:54.179Z,6.50
2019-05-06T09:01:32.406Z,6.50
2019-05-06T09:04:09.526Z,6.40
2019-05-06T09:06:31.542Z,6.50
2019-05-06T09:08:58.383Z,6.50
2019-05-06T09:11:26.096Z,6.50
2019-05-06T09:13:53.491Z,6.40
2019-05-06T09:16:22.360Z,6.40
2019-05-06T09:18:49.814Z,6.40
2019-05-06T09:21:17.313Z,6.50
2019-05-06T09:23:44.531Z,6.50
2019-05-06T09:26:14.100Z,6.60
2019-05-06T09:28:46.477Z,6.60
2019-05-06T09:31:26.230Z,6.60
2019-05-06T09:33:58.388Z,6.70
2019-05-06T09:36:39.937Z,6.70
2019-05-06T09:38:54.860Z,6.80
2019-05-06T09:41:23.085Z,6.90
2019-05-06T09:43:52.659Z,6.90
2019-05-06T09:46:19.534Z,7.00
2019-05-06T09:49:03.374Z,7.00
2019-05-06T09:51:32.507Z,7.10
2019-05-06T09:54:06.619Z,7.20
2019-05-06T09:56:38.168Z,7.30
2019-05-06T09:59:05.498Z,7.40
2019-05-06T10:01:33.245Z,7.50
2019-05-06T10:04:06.228Z,7.50
2019-05-06T10:06:33.609Z,7.60
2019-05-06T10:09:04.714Z,7.60
2019-05-06T10:11:32.908Z,7.70
2019-05-06T10:14:02.880Z,7.80
2019-05-06T10:16:32.384Z,7.80
2019-05-06T10:18:59.701Z,7.80
2019-05-06T10:21:27.117Z,7.80
2019-05-06T10:23:54.569Z,7.80
2019-05-06T10:26:23.472Z,7.90
2019-05-06T10:29:03.518Z,7.90
2019-05-06T10:31:36.125Z,7.90
2019-05-06T10:34:13.852Z,8.00
2019-05-06T10:36:53.309Z,8.10
2019-05-06T10:39:24.260Z,8.20
2019-05-06T10:42:12.740Z,8.50
2019-05-06T10:44:54.871Z,8.60
2019-05-06T10:47:22.675Z,8.80
2019-05-06T10:49:52.807Z,9.00
2019-05-06T10:52:23.919Z,9.20
2019-05-06T10:54:51.141Z,9.40
2019-05-06T10:57:32.848Z,9.40
2019-05-06T11:00:00.669Z,9.30
2019-05-06T11:02:57.618Z,9.20
2019-05-06T11:05:24.867Z,9.10
2019-05-06T11:07:52.302Z,9.00
2019-05-06T11:10:26.905Z,9.00
2019-05-06T11:12:48.880Z,8.90
2019-05-06T11:15:16.649Z,8.90
2019-05-06T11:17:44.005Z,8.90
2019-05-06T11:20:14.030Z,9.00
2019-05-06T11:22:43.355Z,9.10
2019-05-06T11:25:12.195Z,9.20
2019-05-06T11:27:41.841Z,9.20
2019-05-06T11:30:17.801Z,9.30
2019-05-06T11:32:54.839Z,9.50
2019-05-06T11:35:52.571Z,9.50
2019-05-06T11:38:19.757Z,9.60
2019-05-06T11:40:46.961Z,9.70
2019-05-06T11:43:14.540Z,9.70
2019-05-06T11:45:42.724Z,9.70
2019-05-06T11:48:14.281Z,9.80
2019-05-06T11:50:42.679Z,9.80
2019-05-06T11:53:12.386Z,9.90
2019-05-06T11:55:39.292Z,10.10
2019-05-06T11:58:26.271Z,10.10
2019-05-06T12:00:53.728Z,10.10
2019-05-06T12:03:22.899Z,10.20
2019-05-06T12:05:52.538Z,10.20
2019-05-06T12:08:22.069Z,10.10
2019-05-06T12:10:48.977Z,10.00
2019-05-06T12:13:16.351Z,10.00
2019-05-06T12:15:43.610Z,10.00
2019-05-06T12:18:12.487Z,10.00
2019-05-06T12:20:42.587Z,10.20
2019-05-06T12:23:10.057Z,10.30
2019-05-06T12:25:37.413Z,10.40
2019-05-06T12:28:04.965Z,10.50
2019-05-06T12:30:32.444Z,10.50
2019-05-06T12:33:34.521Z,10.50
2019-05-06T12:36:07.253Z,10.50
2019-05-06T12:38:36.340Z,10.40
2019-05-06T12:41:03.710Z,10.50
2019-05-06T12:43:49.966Z,10.40
2019-05-06T12:46:22.583Z,10.40
2019-05-06T12:48:52.028Z,10.40
2019-05-06T12:51:19.185Z,10.20
2019-05-06T12:53:46.452Z,10.10
2019-05-06T12:56:13.704Z,10.00
2019-05-06T12:58:44.095Z,10.00
2019-05-06T13:01:13.351Z,10.00
2019-05-06T13:03:40.039Z,10.00
2019-05-06T13:06:08.954Z,10.00
2019-05-06T13:08:54.046Z,10.00
2019-05-06T13:11:05.901Z,9.80
2019-05-06T13:13:33.337Z,9.90
2019-05-06T13:16:02.743Z,9.90
2019-05-06T13:18:32.116Z,9.90
2019-05-06T13:20:59.203Z,10.00
2019-05-06T13:23:35.460Z,10.00
2019-05-06T13:26:03.139Z,10.10
2019-05-06T13:28:33.429Z,10.10
2019-05-06T13:31:16.437Z,10.00
2019-05-06T13:33:35.008Z,10.10
2019-05-06T13:36:02.512Z,10.10
2019-05-06T13:38:31.946Z,10.30
2019-05-06T13:40:59.877Z,10.30
2019-05-06T13:43:35.710Z,10.30
2019-05-06T13:46:07.438Z,10.40
2019-05-06T13:48:38.945Z,10.50
2019-05-06T13:51:12.302Z,10.60
2019-05-06T13:53:44.024Z,10.60
2019-05-06T13:56:11.946Z,10.60
2019-05-06T13:58:38.898Z,10.70
2019-05-06T14:01:09.599Z,10.60
2019-05-06T14:03:36.834Z,10.60
2019-05-06T14:06:04.217Z,10.70
2019-05-06T14:08:33.006Z,10.70
2019-05-06T14:11:02.865Z,10.70
2019-05-06T14:13:32.615Z,10.60
2019-05-06T14:15:59.440Z,10.70
2019-05-06T14:18:26.871Z,10.80
2019-05-06T14:20:54.237Z,10.80
2019-05-06T14:23:22.035Z,10.90
2019-05-06T14:26:08.105Z,10.80
2019-05-06T14:28:42.757Z,10.80
2019-05-06T14:31:14.604Z,10.90
2019-05-06T14:33:42.789Z,10.90
2019-05-06T14:36:12.662Z,10.90
2019-05-06T14:38:39.611Z,10.90
2019-05-06T14:41:18.827Z,10.90
2019-05-06T14:43:47.403Z,11.00
2019-05-06T14:46:15.168Z,11.00
2019-05-06T14:48:43.645Z,11.10
2019-05-06T14:51:12.907Z,11.20
2019-05-06T14:53:40.298Z,11.20
2019-05-06T14:56:22.669Z,11.20
2019-05-06T14:59:05.980Z,11.20
2019-05-06T15:01:34.346Z,11.20
2019-05-06T15:04:03.120Z,11.00
2019-05-06T15:06:33.109Z,10.90
2019-05-06T15:09:03.698Z,10.90
2019-05-06T15:11:32.467Z,10.80
2019-05-06T15:14:03.286Z,10.80
2019-05-06T15:16:29.332Z,10.80
2019-05-06T15:18:56.674Z,10.70
2019-05-06T15:21:37.284Z,10.70
2019-05-06T15:23:53.165Z,10.60
2019-05-06T15:26:20.346Z,10.70
2019-05-06T15:28:47.702Z,10.60
2019-05-06T15:31:22.883Z,10.60
2019-05-06T15:33:52.924Z,10.60
2019-05-06T15:36:25.795Z,10.60
2019-05-06T15:38:53.126Z,10.60
2019-05-06T15:41:22.217Z,10.60
2019-05-06T15:43:49.497Z,10.60
2019-05-06T15:46:16.865Z,10.50
2019-05-06T15:48:44.128Z,10.50
2019-05-06T15:51:12.240Z,10.50
2019-05-06T15:53:42.056Z,10.40
2019-05-06T15:56:09.021Z,10.40
2019-05-06T15:58:36.613Z,10.40
2019-05-06T16:01:04.001Z,10.40
2019-05-06T16:03:33.413Z,10.50
2019-05-06T16:06:02.025Z,10.50
2019-05-06T16:08:29.566Z,10.50
2019-05-06T16:10:58.833Z,10.60
2019-05-06T16:13:26.017Z,10.50
2019-05-06T16:15:53.435Z,10.50
2019-05-06T16:18:20.623Z,10.50
2019-05-06T16:20:48.465Z,10.40
2019-05-06T16:23:42.152Z,10.40
2019-05-06T16:26:09.041Z,10.40
2019-05-06T16:28:36.491Z,10.40
2019-05-06T16:31:04.340Z,10.40
2019-05-06T16:33:32.936Z,10.30
2019-05-06T16:36:00.554Z,10.30
2019-05-06T16:38:28.073Z,10.30
2019-05-06T16:41:09.376Z,10.40
2019-05-06T16:43:24.395Z,10.30
2019-05-06T16:45:53.223Z,10.30
2019-05-06T16:48:22.583Z,10.20
2019-05-06T16:50:50.255Z,10.20
2019-05-06T16:53:17.463Z,10.20
2019-05-06T16:55:56.348Z,10.20
2019-05-06T16:58:25.988Z,10.20
2019-05-06T17:00:53.821Z,10.20
2019-05-06T17:03:26.709Z,10.30
2019-05-06T17:06:13.991Z,10.20
2019-05-06T17:08:42.458Z,10.20
2019-05-06T17:11:26.125Z,10.20
2019-05-06T17:13:42.585Z,10.10
2019-05-06T17:16:10.158Z,10.10
2019-05-06T17:18:37.688Z,10.10
2019-05-06T17:21:05.189Z,10.10
2019-05-06T17:23:32.552Z,10.10
2019-05-06T17:25:59.783Z,10.00
2019-05-06T17:28:39.124Z,10.00
2019-05-06T17:31:24.622Z,10.00
2019-05-06T17:33:52.492Z,10.00
2019-05-06T17:36:22.343Z,10.00
2019-05-06T17:38:50.071Z,9.90
2019-05-06T17:41:17.486Z,9.90
2019-05-06T17:43:44.856Z,9.80
2019-05-06T17:46:13.374Z,9.80
2019-05-06T17:48:58.890Z,9.80
2019-05-06T17:51:58.431Z,9.80
2019-05-06T17:54:26.063Z,9.80
2019-05-06T17:56:53.483Z,9.70
2019-05-06T17:59:20.839Z,9.70
2019-05-06T18:01:53.026Z,9.70
2019-05-06T18:04:19.476Z,9.70
2019-05-06T18:06:46.898Z,9.70
2019-05-06T18:09:14.558Z,9.60
2019-05-06T18:11:57.135Z,9.60
2019-05-06T18:14:12.788Z,9.70
2019-05-06T18:16:42.576Z,9.60
2019-05-06T18:19:09.643Z,9.60
2019-05-06T18:21:37.000Z,9.60
2019-05-06T18:24:04.458Z,9.60
2019-05-06T18:26:33.553Z,9.60
2019-05-06T18:29:01.005Z,9.60
2019-05-06T18:31:28.242Z,9.60
2019-05-06T18:33:56.537Z,9.50
2019-05-06T18:36:23.944Z,9.50
2019-05-06T18:38:52.534Z,9.50
2019-05-06T18:41:20.026Z,9.50
2019-05-06T18:43:47.241Z,9.50
2019-05-06T18:46:14.675Z,9.40
2019-05-06T18:48:42.743Z,9.40
2019-05-06T18:51:12.579Z,9.40
2019-05-06T18:53:42.273Z,9.40
2019-05-06T18:56:09.763Z,9.40
2019-05-06T18:58:37.174Z,9.30
2019-05-06T19:01:04.783Z,9.30
2019-05-06T19:03:42.959Z,9.30
2019-05-06T19:06:11.965Z,9.20
2019-05-06T19:08:45.219Z,9.20
2019-05-06T19:11:14.543Z,9.20
2019-05-06T19:13:42.128Z,9.20
2019-05-06T19:16:09.546Z,9.10
2019-05-06T19:18:38.675Z,9.10
2019-05-06T19:21:06.213Z,9.10
2019-05-06T19:23:33.416Z,9.10
2019-05-06T19:26:02.865Z,9.00
2019-05-06T19:28:32.307Z,9.00
2019-05-06T19:30:59.851Z,9.00
2019-05-06T19:33:27.202Z,9.00
2019-05-06T19:35:54.678Z,8.90
2019-05-06T19:38:24.395Z,8.90
2019-05-06T19:40:52.137Z,8.90
2019-05-06T19:43:21.981Z,8.80
2019-05-06T19:45:49.739Z,8.80
2019-05-06T19:48:17.090Z,8.80
2019-05-06T19:50:44.788Z,8.80
2019-05-06T19:53:12.260Z,8.70
2019-05-06T19:55:39.627Z,8.70
2019-05-06T19:58:07.027Z,8.70
2019-05-06T20:00:35.030Z,8.60
2019-05-06T20:03:02.833Z,8.60
2019-05-06T20:05:39.673Z,8.60
2019-05-06T20:08:29.613Z,8.60
2019-05-06T20:11:13.121Z,8.50
2019-05-06T20:13:41.868Z,8.50
2019-05-06T20:16:09.282Z,8.50
2019-05-06T20:18:36.757Z,8.50
2019-05-06T20:21:04.281Z,8.50
2019-05-06T20:23:32.807Z,8.40
2019-05-06T20:26:02.814Z,8.40
2019-05-06T20:28:32.203Z,8.30
2019-05-06T20:30:59.911Z,8.30
2019-05-06T20:33:27.528Z,8.20
2019-05-06T20:35:54.900Z,8.20
2019-05-06T20:38:23.161Z,8.20
2019-05-06T20:40:50.718Z,8.20
2019-05-06T20:43:21.673Z,8.20
2019-05-06T20:45:47.679Z,8.10
2019-05-06T20:48:15.007Z,8.10
2019-05-06T20:50:42.946Z,8.20
2019-05-06T20:53:12.118Z,8.10
2019-05-06T20:55:43.137Z,8.10
2019-05-06T20:58:12.034Z,8.10
2019-05-06T21:00:38.982Z,8.10
2019-05-06T21:03:06.273Z,8.00
2019-05-06T21:05:33.554Z,8.00
2019-05-06T21:08:02.262Z,8.00
2019-05-06T21:10:29.660Z,8.00
2019-05-06T21:12:57.139Z,7.90
2019-05-06T21:15:24.637Z,7.90
2019-05-06T21:17:51.718Z,7.90
2019-05-06T21:20:19.214Z,7.80
2019-05-06T21:22:49.003Z,7.80
2019-05-06T21:25:16.052Z,7.80
2019-05-06T21:27:43.405Z,7.80
2019-05-06T21:30:13.189Z,7.80
2019-05-06T21:32:42.620Z,7.70
2019-05-06T21:35:09.942Z,7.70
2019-05-06T21:37:37.158Z,7.70
2019-05-06T21:40:04.731Z,7.70
2019-05-06T21:42:32.594Z,7.70
2019-05-06T21:45:00.152Z,7.70
2019-05-06T21:47:27.590Z,7.70
2019-05-06T21:49:55.275Z,7.70
2019-05-06T21:52:34.322Z,7.70
2019-05-06T21:54:52.569Z,7.70
2019-05-06T21:57:21.799Z,7.70
2019-05-06T21:59:49.158Z,7.70
2019-05-06T22:02:19.023Z,7.70
2019-05-06T22:04:46.513Z,7.70
2019-05-06T22:07:13.940Z,7.70
2019-05-06T22:09:43.059Z,7.70
2019-05-06T22:12:10.644Z,7.70
2019-05-06T22:14:38.282Z,7.60
2019-05-06T22:17:06.785Z,7.60
2019-05-06T22:19:34.013Z,7.60
2019-05-06T22:22:06.430Z,7.60
2019-05-06T22:24:44.293Z,7.60
2019-05-06T22:27:12.296Z,7.60
2019-05-06T22:29:42.585Z,7.60
2019-05-06T22:32:11.868Z,7.60
2019-05-06T22:34:39.161Z,7.60
2019-05-06T22:37:06.416Z,7.60
2019-05-06T22:39:34.292Z,7.60
2019-05-06T22:42:01.626Z,7.50
2019-05-06T22:44:28.810Z,7.50
2019-05-06T22:46:56.361Z,7.50
2019-05-06T22:49:23.622Z,7.50
2019-05-06T22:51:52.147Z,7.50
2019-05-06T22:54:19.496Z,7.50
2019-05-06T22:56:46.934Z,7.50
2019-05-06T22:59:14.146Z,7.50
2019-05-06T23:02:01.826Z,7.50
2019-05-06T23:04:32.302Z,7.40
2019-05-06T23:06:59.282Z,7.40
2019-05-06T23:09:26.605Z,7.40
2019-05-06T23:11:53.821Z,7.40
2019-05-06T23:14:28.893Z,7.40
2019-05-06T23:16:52.108Z,7.40
2019-05-06T23:19:19.465Z,7.40
2019-05-06T23:21:47.043Z,7.30
2019-05-06T23:24:14.130Z,7.30
2019-05-06T23:26:42.502Z,7.30
2019-05-06T23:29:09.862Z,7.30
2019-05-06T23:31:37.182Z,7.30
2019-05-06T23:34:04.961Z,7.30
2019-05-06T23:37:25.363Z,7.30
2019-05-06T23:40:33.107Z,7.30
2019-05-06T23:43:36.913Z,7.20
2019-05-06T23:46:40.721Z,7.20
2019-05-06T23:49:44.251Z,7.20
2019-05-06T23:52:47.776Z,7.10
2019-05-06T23:55:51.989Z,7.10
2019-05-06T23:58:18.496Z,7.10
